Time;durP1;ratioP1;P1;durP2;ratioP2;P2;SDS_P1;SDS_P2;PMS_P1;PMS_P2;Temp;Humidity;BMP_temperature;BMP_pressure;BME280_temperature;BME280_humidity;BME280_pressure;Samples;Min_cycle;Max_cycle;Signal;HPM_P1;HPM_P2
2021/01/25 00:02:40;;;;;;;44.85;19.58;;;;;;;0.26;100.00;96121.44;4904616;29;20047;-87
2021/01/25 00:05:17;;;;;;;38.92;18.00;;;;;;;0.23;100.00;96103.41;4935671;29;20106;-86
2021/01/25 00:07:45;;;;;;;45.70;19.60;;;;;;;0.22;100.00;96109.78;4953370;29;20503;-88
2021/01/25 00:10:28;;;;;;;38.35;15.70;;;;;;;0.14;100.00;96102.44;4906709;29;20047;-89
2021/01/25 00:13:04;;;;;;;42.85;19.25;;;;;;;0.22;100.00;96112.44;4905534;29;20040;-86
2021/01/25 00:15:45;;;;;;;38.55;19.65;;;;;;;0.25;100.00;96121.72;4910057;29;20056;-88
2021/01/25 00:18:16;;;;;;;42.00;19.02;;;;;;;0.02;100.00;96080.78;4919031;29;20040;-87
2021/01/25 00:20:45;;;;;;;46.33;19.02;;;;;;;0.11;100.00;96096.88;4921261;29;20044;-81
2021/01/25 00:23:12;;;;;;;43.55;18.15;;;;;;;0.14;100.00;96113.06;4936600;29;20047;-81
2021/01/25 00:26:09;;;;;;;49.92;20.30;;;;;;;0.04;100.00;96105.22;4921481;29;20055;-82
2021/01/25 00:28:49;;;;;;;47.63;18.88;;;;;;;-0.05;100.00;96091.75;4914973;29;20048;-82
2021/01/25 00:31:19;;;;;;;38.00;18.10;;;;;;;0.07;100.00;96094.03;4899033;29;20043;-83
2021/01/25 00:34:22;;;;;;;;;;;;;;;;;;;;;
2021/01/25 00:37:04;;;;;;;39.67;18.45;;;;;;;-0.09;100.00;96084.66;4935145;29;20044;-83
2021/01/25 00:40:11;;;;;;;44.72;18.27;;;;;;;-0.11;100.00;96084.16;4913898;29;20154;-82
2021/01/25 00:43:10;;;;;;;39.78;16.45;;;;;;;-0.01;100.00;96087.47;4898365;29;20115;-83
2021/01/25 00:46:14;;;;;;;35.17;16.92;;;;;;;0.02;100.00;96106.59;4923610;29;20047;-82
2021/01/25 00:49:00;;;;;;;38.65;16.65;;;;;;;-0.02;100.00;96093.06;4904721;29;20062;-82
2021/01/25 00:52:08;;;;;;;38.55;16.17;;;;;;;0.15;100.00;96113.88;4920916;29;20044;-83
2021/01/25 00:55:15;;;;;;;37.80;16.45;;;;;;;0.09;100.00;96105.16;4932244;29;20071;-83
2021/01/25 00:58:05;;;;;;;35.95;15.52;;;;;;;0.15;100.00;96120.00;4936322;29;20268;-83
2021/01/25 01:00:50;;;;;;;30.27;14.75;;;;;;;0.04;100.00;96099.09;4906167;29;20052;-84
2021/01/25 01:03:37;;;;;;;33.92;15.25;;;;;;;0.03;100.00;96092.22;4938351;29;20048;-83
2021/01/25 01:06:47;;;;;;;32.65;15.63;;;;;;;0.17;100.00;96123.16;4850506;29;20156;-80
2021/01/25 01:09:26;;;;;;;34.35;15.60;;;;;;;0.03;100.00;96097.53;4873666;29;20083;-81
2021/01/25 01:12:09;;;;;;;35.17;16.23;;;;;;;0.02;100.00;96114.56;4851326;29;20045;-82
2021/01/25 01:15:21;;;;;;;35.80;16.20;;;;;;;0.09;100.00;96118.47;4879124;29;20616;-83
2021/01/25 01:18:12;;;;;;;32.83;15.75;;;;;;;-0.03;100.00;96092.25;4865041;29;20053;-83
2021/01/25 01:21:18;;;;;;;35.00;15.32;;;;;;;0.02;100.00;96107.38;4879624;29;20422;-83
2021/01/25 01:24:30;;;;;;;35.33;15.35;;;;;;;0.11;100.00;96121.63;4862701;29;20053;-83
2021/01/25 01:34:35;;;;;;;37.45;14.82;;;;;;;-0.10;100.00;96102.47;4857994;29;20053;-81
2021/01/25 01:37:07;;;;;;;30.42;14.20;;;;;;;-0.08;100.00;96116.25;4890090;29;20048;-83
2021/01/25 01:40:08;;;;;;;31.65;13.55;;;;;;;-0.11;100.00;96111.53;4937434;29;20504;-84
2021/01/25 01:43:04;;;;;;;31.02;13.43;;;;;;;0.04;100.00;96128.38;4897970;29;20066;-84
2021/01/25 01:46:02;;;;;;;31.55;14.52;;;;;;;-0.06;100.00;96113.34;4915746;29;20534;-82
2021/01/25 01:48:52;;;;;;;30.05;13.38;;;;;;;0.06;100.00;96126.22;4919724;29;20051;-82
2021/01/25 01:51:45;;;;;;;32.97;12.95;;;;;;;-0.14;100.00;96117.41;4914342;29;20118;-82
2021/01/25 01:54:29;;;;;;;33.65;14.52;;;;;;;-0.06;100.00;96123.97;4904050;29;20047;-83
2021/01/25 01:57:52;;;;;;;27.40;12.43;;;;;;;-0.21;100.00;96108.19;4922261;29;20151;-83
2021/01/25 02:00:49;;;;;;;28.80;13.35;;;;;;;-0.25;100.00;96115.13;4937864;29;20103;-83
2021/01/25 02:04:02;;;;;;;33.55;13.45;;;;;;;-0.31;100.00;96110.97;4924244;29;20056;-82
2021/01/25 02:07:28;;;;;;;31.90;13.43;;;;;;;-0.34;100.00;96109.69;4854866;29;20565;-83
2021/01/25 02:10:13;;;;;;;29.58;13.15;;;;;;;-0.21;100.00;96132.13;4853538;29;20143;-83
2021/01/25 02:13:04;;;;;;;22.70;9.65;;;;;;;-0.31;100.00;96124.25;4889685;29;20079;-83
2021/01/25 02:15:46;;;;;;;32.35;13.93;;;;;;;-0.26;100.00;96127.63;4949546;29;20063;-81
2021/01/25 02:18:16;;;;;;;28.50;12.80;;;;;;;-0.21;100.00;96140.91;4923634;29;20083;-81
2021/01/25 02:20:53;;;;;;;28.95;13.68;;;;;;;-0.34;100.00;96108.88;4939596;29;20103;-80
2021/01/25 02:24:04;;;;;;;26.90;12.55;;;;;;;-0.39;100.00;96117.72;4940780;29;20038;-81
2021/01/25 02:27:15;;;;;;;29.08;12.95;;;;;;;-0.23;100.00;96145.69;4940687;28;20032;-80
2021/01/25 02:29:59;;;;;;;28.27;12.60;;;;;;;-0.35;100.00;96123.22;4938114;29;20036;-81
2021/01/25 02:32:50;;;;;;;23.42;12.18;;;;;;;-0.23;100.00;96136.91;4924074;29;20099;-82
2021/01/25 02:36:01;;;;;;;;;;;;;;;;;;;;;
2021/01/25 02:38:51;;;;;;;28.38;12.73;;;;;;;-0.35;100.00;96116.06;4922836;29;20217;-83
2021/01/25 02:41:38;;;;;;;24.55;12.18;;;;;;;-0.32;100.00;96146.59;4938455;29;20448;-83
2021/01/25 02:44:23;;;;;;;26.83;11.43;;;;;;;-0.43;100.00;96116.66;4922518;29;20047;-81
2021/01/25 02:47:07;;;;;;;26.15;12.25;;;;;;;-0.44;100.00;96130.25;4923138;29;20273;-81
2021/01/25 02:49:37;;;;;;;27.63;11.57;;;;;;;-0.48;100.00;96127.34;4922378;29;20052;-81
2021/01/25 02:55:02;;;;;;;24.73;11.90;;;;;;;-0.57;100.00;96126.41;4931329;29;20130;-82
2021/01/25 02:57:38;;;;;;;24.40;11.80;;;;;;;-0.57;100.00;96122.94;4904806;29;20078;-81
2021/01/25 03:00:16;;;;;;;23.65;11.18;;;;;;;-0.71;100.00;96115.63;4920028;29;20047;-81
2021/01/25 03:03:00;;;;;;;24.83;11.82;;;;;;;-0.81;100.00;96106.97;4918856;29;20558;-81
2021/01/25 03:05:46;;;;;;;28.30;12.18;;;;;;;-0.74;100.00;96129.47;4934582;29;20047;-82
2021/01/25 03:08:21;;;;;;;27.02;11.77;;;;;;;-0.81;100.00;96121.03;4919113;29;20048;-81
2021/01/25 03:10:48;;;;;;;29.92;12.52;;;;;;;-0.90;100.00;96114.72;4903332;29;20074;-83
2021/01/25 03:13:34;;;;;;;31.25;12.30;;;;;;;-0.75;100.00;96129.75;4934824;29;20075;-79
2021/01/25 03:16:01;;;;;;;28.40;12.63;;;;;;;-0.86;100.00;96125.59;4921470;29;20052;-80
2021/01/25 03:18:34;;;;;;;26.20;11.88;;;;;;;-1.09;100.00;96113.06;4926165;29;20059;-81
2021/01/25 03:21:01;;;;;;;27.13;11.90;;;;;;;-1.13;100.00;96112.00;4905533;29;20518;-81
2021/01/25 03:23:35;;;;;;;30.98;12.27;;;;;;;-1.12;100.00;96143.59;4936925;29;20142;-82
2021/01/25 03:26:14;;;;;;;30.10;12.10;;;;;;;-1.39;100.00;96119.38;4922192;29;20094;-80
2021/01/25 03:28:40;;;;;;;30.15;11.98;;;;;;;-1.43;100.00;96134.25;4935889;29;20055;-82
2021/01/25 03:31:07;;;;;;;29.35;11.20;;;;;;;-1.46;100.00;96148.88;4938903;29;20097;-79
2021/01/25 03:33:34;;;;;;;32.53;12.45;;;;;;;-1.70;100.00;96129.38;4914642;29;20046;-80
2021/01/25 03:36:00;;;;;;;25.23;11.82;;;;;;;-1.67;100.00;96139.44;4917507;29;20052;-81
2021/01/25 03:38:37;;;;;;;29.90;12.27;;;;;;;-1.84;100.00;96130.25;4919930;29;20036;-81
2021/01/25 03:41:03;;;;;;;27.38;11.93;;;;;;;-2.06;100.00;96123.47;4919603;29;20107;-80
2021/01/25 03:43:30;;;;;;;33.05;11.93;;;;;;;-2.13;100.00;96135.41;4919089;29;20043;-82
2021/01/25 03:46:03;;;;;;;23.25;11.55;;;;;;;-2.23;100.00;96149.50;4904212;29;20051;-81
2021/01/25 03:48:36;;;;;;;25.92;11.55;;;;;;;-2.43;100.00;96128.38;4918965;29;20538;-80
2021/01/25 03:51:05;;;;;;;25.80;11.43;;;;;;;-2.49;100.00;96121.50;4934363;29;20122;-81
2021/01/25 03:53:38;;;;;;;33.13;11.55;;;;;;;-2.40;100.00;96138.41;4919487;29;20054;-82
2021/01/25 03:56:15;;;;;;;28.25;12.40;;;;;;;-2.51;100.00;96128.94;4919823;29;20055;-82
2021/01/25 03:58:44;;;;;;;24.40;11.02;;;;;;;-2.46;100.00;96128.91;4918904;29;20082;-81
2021/01/25 04:01:11;;;;;;;25.95;11.13;;;;;;;-2.73;100.00;96134.53;4919574;29;20086;-81
2021/01/25 04:03:38;;;;;;;24.25;11.13;;;;;;;-2.67;100.00;96146.69;4947450;29;20051;-78
2021/01/25 04:06:04;;;;;;;23.10;11.30;;;;;;;-2.75;100.00;96139.28;4931608;29;20071;-80
2021/01/25 04:08:45;;;;;;;28.88;12.25;;;;;;;-2.66;100.00;96160.75;4944157;29;20054;-82
2021/01/25 04:11:11;;;;;;;29.52;12.48;;;;;;;-2.50;100.00;96154.34;4920512;29;20423;-81
2021/01/25 04:13:42;;;;;;;32.30;12.45;;;;;;;-2.47;100.00;96153.81;4937854;29;20440;-80
2021/01/25 04:16:11;;;;;;;27.42;11.80;;;;;;;-2.57;100.00;96148.53;4919970;29;20061;-81
2021/01/25 04:18:39;;;;;;;25.70;12.68;;;;;;;-2.49;100.00;96158.59;4938363;29;20070;-81
2021/01/25 04:21:08;;;;;;;30.95;11.32;;;;;;;-2.49;100.00;96155.13;4925137;29;20352;-82
2021/01/25 04:23:38;;;;;;;31.27;12.15;;;;;;;-2.45;100.00;96156.19;4900889;29;20144;-82
2021/01/25 04:26:05;;;;;;;28.02;12.73;;;;;;;-2.40;100.00;96158.84;4918486;29;20051;-82
2021/01/25 04:28:32;;;;;;;29.90;12.90;;;;;;;-2.35;100.00;96149.03;4932803;29;20051;-80
2021/01/25 04:31:02;;;;;;;34.65;13.77;;;;;;;-2.23;100.00;96164.59;4936111;29;20039;-80
2021/01/25 04:33:31;;;;;;;32.00;12.60;;;;;;;-2.10;100.00;96156.88;4919273;29;20044;-81
2021/01/25 04:35:59;;;;;;;33.15;13.57;;;;;;;-2.17;100.00;96155.59;4938655;29;20059;-81
2021/01/25 04:38:27;;;;;;;31.77;13.23;;;;;;;-2.12;100.00;96160.88;4939615;29;20047;-79
2021/01/25 04:40:53;;;;;;;32.15;13.35;;;;;;;-2.08;100.00;96165.34;4921804;29;20039;-80
2021/01/25 04:43:25;;;;;;;32.30;13.48;;;;;;;-1.80;100.00;96169.22;4924089;29;20130;-79
2021/01/25 04:45:54;;;;;;;28.88;12.63;;;;;;;-1.80;100.00;96179.81;4942054;29;20114;-78
2021/01/25 04:48:30;;;;;;;32.40;12.05;;;;;;;-1.74;100.00;96170.78;4925331;29;20124;-79
2021/01/25 04:50:59;;;;;;;;;;;;;;;-1.75;100.00;96174.50;4922739;29;20114;-79
2021/01/25 04:53:27;;;;;;;29.30;12.57;;;;;;;-1.74;100.00;96175.28;4954977;29;20366;-79
2021/01/25 04:55:53;;;;;;;26.98;12.13;;;;;;;-1.70;100.00;96184.31;4942216;29;20059;-80
2021/01/25 04:58:22;;;;;;;35.15;13.93;;;;;;;-1.76;100.00;96174.78;4941419;29;20060;-80
2021/01/25 05:00:50;;;;;;;29.65;13.18;;;;;;;-1.81;100.00;96178.25;4941129;29;20055;-80
2021/01/25 05:03:16;;;;;;;36.08;13.38;;;;;;;-1.79;100.00;96177.97;4924150;29;20126;-80
2021/01/25 05:05:45;;;;;;;39.05;13.85;;;;;;;-1.80;100.00;96179.00;4940984;29;20468;-77
2021/01/25 05:08:15;;;;;;;38.10;14.05;;;;;;;-1.70;100.00;96185.06;4938988;29;20408;-80
2021/01/25 05:10:49;;;;;;;36.75;14.52;;;;;;;-1.57;100.00;96186.34;4922360;29;20052;-80
2021/01/25 05:13:25;;;;;;;37.53;15.45;;;;;;;-1.57;100.00;96186.34;4938916;29;20040;-80
2021/01/25 05:15:53;;;;;;;36.60;13.98;;;;;;;-1.70;100.00;96189.59;4922980;29;20067;-78
2021/01/25 05:18:26;;;;;;;31.33;13.95;;;;;;;-1.91;100.00;96186.25;4940724;29;20399;-79
2021/01/25 05:20:55;;;;;;;33.45;14.35;;;;;;;-1.83;100.00;96179.59;4938607;29;20115;-77
2021/01/25 05:23:24;;;;;;;37.35;13.18;;;;;;;-1.85;100.00;96182.50;4921943;29;20073;-79
2021/01/25 05:25:51;;;;;;;34.63;12.88;;;;;;;-1.76;100.00;96188.03;4923693;29;20058;-80
2021/01/25 05:28:20;;;;;;;36.45;14.10;;;;;;;-1.83;100.00;96188.31;4939653;29;20039;-78
2021/01/25 05:30:47;;;;;;;35.92;14.45;;;;;;;-1.92;100.00;96182.78;4939516;29;20307;-80
2021/01/25 05:33:25;;;;;;;38.95;14.43;;;;;;;-1.82;100.00;96192.56;4939078;29;20040;-80
2021/01/25 05:35:54;;;;;;;33.35;13.75;;;;;;;-1.92;100.00;96192.59;4922381;29;20055;-79
2021/01/25 05:38:20;;;;;;;35.10;14.45;;;;;;;-1.97;100.00;96179.38;4922001;29;20074;-80
2021/01/25 05:40:55;;;;;;;33.58;13.80;;;;;;;-1.90;100.00;96179.88;4942256;29;20395;-79
2021/01/25 05:43:31;;;;;;;52.20;15.68;;;;;;;-1.90;100.00;96183.31;4918464;29;20047;-77
2021/01/25 05:46:14;;;;;;;36.95;15.23;;;;;;;-1.81;100.00;96180.91;4940127;29;20049;-78
2021/01/25 05:48:45;;;;;;;40.15;15.50;;;;;;;-1.72;100.00;96192.50;4936498;29;20087;-80
2021/01/25 05:51:16;;;;;;;40.90;14.98;;;;;;;-1.72;100.00;96203.13;4942196;28;20124;-79
2021/01/25 05:53:45;;;;;;;42.50;15.30;;;;;;;-1.75;100.00;96201.00;4942543;29;20107;-80
2021/01/25 05:56:14;;;;;;;40.70;15.98;;;;;;;-1.73;100.00;96204.19;4940284;29;20111;-79
2021/01/25 05:58:43;;;;;;;32.55;14.00;;;;;;;-1.79;100.00;96202.63;4936479;29;20043;-80
2021/01/25 06:01:10;;;;;;;35.50;14.90;;;;;;;-1.81;100.00;96199.47;4925451;29;20048;-80
2021/01/25 06:03:37;;;;;;;46.47;16.58;;;;;;;-1.82;100.00;96197.06;4942631;29;20031;-81
2021/01/25 06:06:07;;;;;;;32.15;13.70;;;;;;;-1.85;100.00;96197.59;4942646;29;20509;-78
2021/01/25 06:08:51;;;;;;;35.38;14.88;;;;;;;-1.83;100.00;96211.41;4940464;29;20226;-79
2021/01/25 06:11:20;;;;;;;36.13;13.98;;;;;;;-1.89;100.00;96200.03;4942343;29;20055;-81
2021/01/25 06:14:11;;;;;;;44.30;14.25;;;;;;;-2.12;100.00;96206.72;4921356;29;20412;-79
2021/01/25 06:16:44;;;;;;;36.55;13.90;;;;;;;-2.13;100.00;96206.97;4937151;29;20107;-80
2021/01/25 06:19:11;;;;;;;42.17;15.63;;;;;;;-2.17;100.00;96205.94;4919418;29;20132;-79
2021/01/25 06:21:48;;;;;;;39.90;15.30;;;;;;;-2.14;100.00;96192.16;4946875;23;20238;-78
2021/01/25 06:24:22;;;;;;;40.70;14.52;;;;;;;-2.29;100.00;96187.66;5018577;23;20049;-78
2021/01/25 06:26:49;;;;;;;39.13;14.98;;;;;;;-2.04;100.00;96219.41;5019830;28;20052;-78
2021/01/25 06:29:20;;;;;;;38.35;15.23;;;;;;;-2.19;100.00;96216.78;5025426;28;20085;-78
2021/01/25 06:31:53;;;;;;;42.40;15.52;;;;;;;-2.26;100.00;96215.50;5033429;28;20068;-78
2021/01/25 06:34:21;;;;;;;37.80;15.57;;;;;;;-2.37;100.00;96225.31;5043091;28;20058;-80
2021/01/25 06:36:50;;;;;;;38.08;14.95;;;;;;;-2.31;100.00;96213.66;5018086;28;20053;-79
2021/01/25 06:39:27;;;;;;;35.30;14.85;;;;;;;-2.32;100.00;96232.47;5035274;28;20049;-79
2021/01/25 06:42:05;;;;;;;44.83;15.35;;;;;;;-2.29;100.00;96229.25;5036539;28;20037;-80
2021/01/25 06:44:34;;;;;;;35.28;14.77;;;;;;;-2.20;100.00;96228.47;5018137;28;20512;-80
2021/01/25 06:47:04;;;;;;;36.20;14.50;;;;;;;-2.19;100.00;96239.84;5000647;28;20041;-79
2021/01/25 06:49:32;;;;;;;37.28;14.25;;;;;;;-2.21;100.00;96234.03;5017208;28;20414;-79
2021/01/25 06:51:59;;;;;;;32.83;14.38;;;;;;;-2.22;100.00;96229.81;5034071;28;20554;-78
2021/01/25 06:54:27;;;;;;;43.13;14.73;;;;;;;-2.40;100.00;96235.66;5016477;28;20406;-79
2021/01/25 06:56:59;;;;;;;39.97;14.60;;;;;;;-2.49;100.00;96231.94;5033167;28;20045;-78
2021/01/25 06:59:28;;;;;;;37.08;15.10;;;;;;;-2.49;100.00;96242.53;5033680;28;20051;-78
2021/01/25 07:01:55;;;;;;;41.70;15.55;;;;;;;-2.57;100.00;96249.16;5034289;28;20033;-79
2021/01/25 07:04:29;;;;;;;37.05;14.77;;;;;;;-2.59;100.00;96246.81;5037021;28;20529;-78
2021/01/25 07:06:59;;;;;;;40.42;14.60;;;;;;;-2.58;100.00;96251.03;5036782;28;20064;-79
2021/01/25 07:09:33;;;;;;;34.40;14.43;;;;;;;-2.59;100.00;96257.41;5037095;28;20071;-78
2021/01/25 07:12:03;;;;;;;34.88;14.02;;;;;;;-2.69;100.00;96254.75;5033483;28;20132;-79
2021/01/25 07:14:33;;;;;;;40.70;14.80;;;;;;;-2.65;100.00;96257.66;5033207;28;20477;-78
2021/01/25 07:17:01;;;;;;;36.03;14.57;;;;;;;-2.76;100.00;96271.97;5029695;28;20041;-78
2021/01/25 07:19:28;;;;;;;35.13;14.45;;;;;;;-2.70;100.00;96266.38;4983860;28;20398;-78
2021/01/25 07:21:55;;;;;;;38.65;14.77;;;;;;;-2.69;100.00;96278.59;5013201;28;20038;-79
2021/01/25 07:24:23;;;;;;;39.22;14.27;;;;;;;-2.53;100.00;96266.91;4998187;28;20053;-78
2021/01/25 07:26:54;;;;;;;40.85;14.27;;;;;;;-2.44;100.00;96288.38;5033235;28;20493;-78
2021/01/25 07:29:22;;;;;;;37.13;14.38;;;;;;;-2.34;100.00;96287.56;5019972;28;20059;-78
2021/01/25 07:31:49;;;;;;;39.17;14.38;;;;;;;-2.35;100.00;96283.34;5024551;28;20061;-78
2021/01/25 07:34:16;;;;;;;35.55;14.73;;;;;;;-2.14;100.00;96298.19;5026619;28;20049;-78
2021/01/25 07:36:44;;;;;;;39.70;14.95;;;;;;;-2.00;100.00;96299.19;5024428;28;20233;-78
2021/01/25 07:39:14;;;;;;;35.40;13.65;;;;;;;-2.00;100.00;96301.84;4999776;28;20096;-78
2021/01/25 07:41:41;;;;;;;33.83;13.50;;;;;;;-1.83;100.00;96302.34;5020280;28;20038;-77
2021/01/25 07:44:09;;;;;;;30.02;13.25;;;;;;;-1.83;100.00;96299.69;5022299;28;20044;-78
2021/01/25 07:46:36;;;;;;;31.85;13.55;;;;;;;-1.74;100.00;96295.44;5019975;28;20045;-79
2021/01/25 07:49:07;;;;;;;41.80;14.77;;;;;;;-1.61;100.00;96248.97;5014390;28;20054;-79
2021/01/25 08:17:24;;;;;;;28.40;12.43;;;;;;;-1.83;100.00;96298.91;5015389;28;20125;-82
2021/01/25 08:20:20;;;;;;;24.13;11.38;;;;;;;-1.48;100.00;96299.59;5024617;28;20041;-85
2021/01/25 08:23:21;;;;;;;29.55;11.95;;;;;;;-1.13;100.00;96311.13;5029181;28;20054;-82
2021/01/25 08:25:59;;;;;;;31.00;10.30;;;;;;;-1.02;100.00;96313.47;5008803;28;20107;-83
2021/01/25 08:28:31;;;;;;;;;;;;;;;-0.89;100.00;96291.59;5036492;28;20049;-82
2021/01/25 08:31:13;;;;;;;32.55;12.68;;;;;;;-0.68;100.00;96292.28;5026882;28;19922;-83
2021/01/25 08:33:44;;;;;;;30.90;13.20;;;;;;;-0.28;100.00;96310.56;5017518;28;20063;-81
2021/01/25 08:36:27;;;;;;;30.75;12.23;;;;;;;0.32;100.00;96305.78;5032175;28;20046;-82
2021/01/25 08:39:11;;;;;;;25.83;12.18;;;;;;;0.69;100.00;96292.59;5038238;28;20041;-83
2021/01/25 08:41:50;;;;;;;30.35;11.90;;;;;;;1.39;100.00;96306.03;5039070;28;20112;-81
2021/01/25 08:44:19;;;;;;;25.85;12.05;;;;;;;1.82;100.00;96310.97;5039522;28;20056;-80
2021/01/25 08:46:47;;;;;;;25.77;11.98;;;;;;;1.55;100.00;96297.53;5037974;28;20100;-82
2021/01/25 08:49:19;;;;;;;22.83;11.57;;;;;;;1.24;100.00;96307.84;5041020;28;20487;-84
2021/01/25 08:52:09;;;;;;;26.05;11.48;;;;;;;0.96;100.00;96313.28;5040002;28;20039;-83
2021/01/25 08:54:39;;;;;;;25.65;11.75;;;;;;;0.61;100.00;96303.84;5030122;28;20110;-84
2021/01/25 08:57:20;;;;;;;24.77;11.85;;;;;;;0.53;100.00;96318.59;5015341;28;20049;-83
2021/01/25 08:59:47;;;;;;;26.70;12.30;;;;;;;0.36;100.00;96304.91;5019787;28;20122;-84
2021/01/25 09:02:21;;;;;;;32.15;11.75;;;;;;;0.25;100.00;96300.00;5026068;28;20756;-82
2021/01/25 09:04:54;;;;;;;25.33;11.52;;;;;;;0.28;100.00;96300.22;5045438;28;20050;-82
2021/01/25 09:07:24;;;;;;;26.30;12.00;;;;;;;0.64;100.00;96324.59;5039475;28;20555;-84
2021/01/25 09:09:51;;;;;;;25.92;12.50;;;;;;;0.89;100.00;96320.84;5034746;28;20037;-83
2021/01/25 09:12:18;;;;;;;27.55;12.30;;;;;;;1.01;100.00;96322.00;5040627;28;20405;-83
2021/01/25 09:14:47;;;;;;;31.55;12.85;;;;;;;1.04;100.00;96326.75;5035346;28;20053;-83
2021/01/25 09:17:15;;;;;;;24.35;11.73;;;;;;;1.11;100.00;96324.53;5035042;28;20033;-86
2021/01/25 09:19:41;;;;;;;29.02;13.18;;;;;;;1.19;100.00;96337.22;5004290;28;20045;-84
2021/01/25 09:22:12;;;;;;;30.38;12.82;;;;;;;1.49;100.00;96345.88;5014930;28;20072;-81
2021/01/25 09:24:41;;;;;;;29.83;13.52;;;;;;;1.20;100.00;96335.34;5018381;28;20088;-82
2021/01/25 09:27:09;;;;;;;33.60;14.65;;;;;;;1.38;100.00;96345.25;5015093;28;20049;-82
2021/01/25 09:29:37;;;;;;;35.10;14.23;;;;;;;0.71;100.00;96334.91;5020816;28;20520;-79
2021/01/25 09:32:06;;;;;;;26.92;13.40;;;;;;;1.29;100.00;96351.50;5027763;28;20040;-81
2021/01/25 09:34:36;;;;;;;34.45;14.32;;;;;;;1.61;100.00;96352.38;5049776;28;20045;-84
2021/01/25 09:37:07;;;;;;;25.13;12.40;;;;;;;1.59;100.00;96354.53;5034220;28;20054;-81
2021/01/25 09:39:34;;;;;;;30.45;12.20;;;;;;;1.63;100.00;96362.75;5037235;28;20045;-81
2021/01/25 09:42:00;;;;;;;20.60;10.45;;;;;;;1.57;100.00;96354.03;5039622;28;20064;-84
2021/01/25 09:44:26;;;;;;;29.77;11.13;;;;;;;2.01;100.00;96369.66;5015846;28;20038;-81
2021/01/25 09:46:52;;;;;;;20.38;7.50;;;;;;;1.60;100.00;96361.44;5019533;28;20049;-81
2021/01/25 09:49:20;;;;;;;12.57;6.30;;;;;;;2.22;100.00;96367.44;5001214;28;20053;-80
2021/01/25 09:51:47;;;;;;;10.85;4.53;;;;;;;1.93;100.00;96369.50;5029787;28;20050;-81
2021/01/25 09:54:13;;;;;;;10.75;5.40;;;;;;;2.30;100.00;96367.56;5015386;28;20522;-81
2021/01/25 09:56:44;;;;;;;19.08;9.15;;;;;;;2.39;100.00;96367.69;5018763;28;20401;-81
2021/01/25 09:59:10;;;;;;;21.45;10.75;;;;;;;1.89;100.00;96358.63;5018168;28;20057;-82
2021/01/25 10:01:37;;;;;;;16.60;8.60;;;;;;;2.44;100.00;96363.06;5001020;28;20061;-81
2021/01/25 10:04:04;;;;;;;9.90;5.38;;;;;;;2.17;100.00;96367.53;5017705;28;20510;-82
2021/01/25 10:06:30;;;;;;;8.73;4.00;;;;;;;1.83;100.00;96363.22;5017781;28;20053;-80
2021/01/25 10:08:59;;;;;;;6.97;3.63;;;;;;;1.39;100.00;96372.69;5016094;28;20046;-82
2021/01/25 10:11:26;;;;;;;7.05;3.70;;;;;;;1.53;100.00;96363.69;5017289;28;20072;-81
2021/01/25 10:13:55;;;;;;;7.78;4.00;;;;;;;1.20;100.00;96349.47;5015510;28;20034;-85
2021/01/25 10:16:23;;;;;;;6.97;4.30;;;;;;;1.51;100.00;96362.38;5016706;28;20085;-84
2021/01/25 10:18:50;;;;;;;8.82;4.05;;;;;;;1.80;100.00;96371.03;5017380;28;20042;-83
2021/01/25 10:21:18;;;;;;;8.10;4.63;;;;;;;1.93;100.00;96375.66;5035849;28;20060;-84
2021/01/25 10:23:47;;;;;;;7.18;4.63;;;;;;;1.65;100.00;96374.69;5039072;28;20037;-83
2021/01/25 10:26:17;;;;;;;9.32;4.53;;;;;;;1.63;100.00;96373.41;5036307;28;20260;-83
2021/01/25 10:28:43;;;;;;;12.13;5.25;;;;;;;1.42;100.00;96366.78;5037854;28;20120;-85
2021/01/25 10:31:09;;;;;;;11.20;5.95;;;;;;;1.55;100.00;96376.75;5036147;28;20079;-81
2021/01/25 10:33:36;;;;;;;11.02;5.97;;;;;;;1.61;100.00;96380.91;5050614;28;20038;-83
2021/01/25 10:36:06;;;;;;;11.45;5.60;;;;;;;1.60;100.00;96374.78;5053985;28;20045;-84
2021/01/25 10:38:34;;;;;;;10.88;5.65;;;;;;;1.97;100.00;96378.50;5055440;28;20034;-83
2021/01/25 10:41:00;;;;;;;11.15;5.68;;;;;;;2.34;100.00;96387.25;5027260;28;20042;-80
2021/01/25 10:43:26;;;;;;;13.18;5.80;;;;;;;2.13;100.00;96378.00;5013017;28;20042;-83
2021/01/25 10:45:52;;;;;;;12.70;6.28;;;;;;;3.33;100.00;96366.13;4994161;28;20437;-84
2021/01/25 10:48:18;;;;;;;8.82;5.10;;;;;;;3.17;100.00;96372.91;5011962;28;20045;-83
2021/01/25 10:50:47;;;;;;;10.05;5.60;;;;;;;3.90;100.00;96377.97;4995042;28;20067;-86
2021/01/25 10:53:15;;;;;;;10.43;5.70;;;;;;;4.62;100.00;96377.88;4993721;28;20045;-84
2021/01/25 10:55:42;;;;;;;9.00;5.00;;;;;;;5.09;100.00;96374.44;5030889;28;20051;-83
2021/01/25 10:58:08;;;;;;;9.45;5.53;;;;;;;4.50;100.00;96377.63;5021604;28;20136;-84
2021/01/25 11:00:36;;;;;;;11.43;5.40;;;;;;;3.51;100.00;96380.50;4996636;28;20600;-85
2021/01/25 11:03:03;;;;;;;9.75;5.45;;;;;;;2.96;100.00;96385.88;5013423;28;20061;-85
2021/01/25 11:05:30;;;;;;;12.43;5.97;;;;;;;3.18;100.00;96379.81;5015336;28;20509;-83
2021/01/25 11:07:56;;;;;;;10.30;5.70;;;;;;;3.13;100.00;96391.41;5013157;28;20069;-81
2021/01/25 11:10:26;;;;;;;12.82;7.03;;;;;;;3.01;100.00;96393.00;5012630;28;20091;-84
2021/01/25 11:12:55;;;;;;;10.98;5.78;;;;;;;3.19;100.00;96385.97;5015439;28;20657;-84
2021/01/25 11:15:23;;;;;;;12.15;6.10;;;;;;;3.52;100.00;96382.84;4998360;28;20056;-84
2021/01/25 11:17:49;;;;;;;11.40;5.97;;;;;;;3.71;100.00;96396.09;5021555;28;20072;-83
2021/01/25 11:20:17;;;;;;;18.80;6.35;;;;;;;2.45;100.00;96388.66;5017884;28;20409;-81
2021/01/25 11:22:45;;;;;;;15.57;6.57;;;;;;;2.75;100.00;96399.91;5017339;28;20037;-84
2021/01/25 11:25:12;;;;;;;12.88;6.47;;;;;;;2.41;100.00;96397.53;5013959;28;20056;-83
2021/01/25 11:27:39;;;;;;;12.95;6.70;;;;;;;3.19;100.00;96399.31;5015159;28;20049;-81
2021/01/25 11:30:07;;;;;;;17.23;6.55;;;;;;;2.97;100.00;96398.13;5016492;28;20092;-83
2021/01/25 11:32:34;;;;;;;12.30;6.55;;;;;;;2.26;100.00;96395.94;5015787;28;20657;-83
2021/01/25 11:35:01;;;;;;;10.52;6.22;;;;;;;2.97;100.00;96400.00;5013018;28;20136;-83
2021/01/25 11:37:30;;;;;;;11.85;6.28;;;;;;;2.76;100.00;96401.50;5021373;28;20064;-81
2021/01/25 11:39:56;;;;;;;10.85;6.18;;;;;;;2.29;100.00;96392.69;5031287;28;20048;-81
2021/01/25 11:42:22;;;;;;;12.13;6.57;;;;;;;2.55;100.00;96386.91;5011629;28;20037;-81
2021/01/25 11:44:51;;;;;;;11.48;6.57;;;;;;;2.27;100.00;96396.72;5011092;28;20041;-81
2021/01/25 11:47:17;;;;;;;12.90;6.57;;;;;;;2.33;100.00;96392.88;5024004;28;20049;-81
2021/01/25 11:49:44;;;;;;;12.27;6.45;;;;;;;2.55;100.00;96398.38;5032032;28;20042;-81
2021/01/25 11:52:10;;;;;;;15.98;6.43;;;;;;;2.59;100.00;96401.25;5032122;28;20420;-81
2021/01/25 11:54:37;;;;;;;15.32;6.53;;;;;;;2.39;100.00;96408.53;5031189;28;20113;-81
2021/01/25 11:57:06;;;;;;;14.00;6.35;;;;;;;2.60;100.00;96403.63;5032355;28;20038;-81
2021/01/25 11:59:32;;;;;;;11.77;6.32;;;;;;;2.91;100.00;96399.34;5032348;28;20049;-81
2021/01/25 12:01:59;;;;;;;11.13;6.15;;;;;;;3.73;100.00;96393.91;5031810;28;20068;-83
2021/01/25 12:04:29;;;;;;;15.43;6.47;;;;;;;4.62;100.00;96397.38;5031632;28;20204;-78
2021/01/25 12:06:56;;;;;;;10.32;5.70;;;;;;;4.23;100.00;96398.09;5029181;28;20045;-82
2021/01/25 12:09:23;;;;;;;11.68;5.63;;;;;;;4.39;100.00;96383.22;5017248;28;20260;-81
2021/01/25 12:11:50;;;;;;;12.80;6.25;;;;;;;4.66;100.00;96395.69;5013822;28;20054;-80
2021/01/25 12:14:18;;;;;;;11.65;5.88;;;;;;;4.41;100.00;96404.38;5012826;28;20053;-82
2021/01/25 12:16:45;;;;;;;10.50;5.78;;;;;;;4.06;100.00;96381.09;5012634;28;20046;-83
2021/01/25 12:19:12;;;;;;;11.63;5.38;;;;;;;3.23;100.00;96401.09;5012092;28;20192;-83
2021/01/25 12:21:44;;;;;;;10.70;5.68;;;;;;;2.79;100.00;96412.34;5016189;28;20576;-81
2021/01/25 12:24:10;;;;;;;10.68;5.68;;;;;;;2.89;100.00;96414.84;5012520;28;20076;-82
2021/01/25 12:26:37;;;;;;;10.77;5.32;;;;;;;2.40;100.00;96399.41;5012100;28;20525;-82
2021/01/25 12:29:03;;;;;;;15.18;5.25;;;;;;;2.40;100.00;96412.00;5011657;28;20046;-80